Time;durP1;ratioP1;P1;durP2;ratioP2;P2;SDS_P1;SDS_P2;PMS_P1;PMS_P2;Temp;Humidity;BMP_temperature;BMP_pressure;BME280_temperature;BME280_humidity;BME280_pressure;Samples;Min_cycle;Max_cycle;Signal;HPM_P1;HPM_P2
2021/10/29 00:00:35;;;;;;;48.63;37.08;;;;;;;10.86;70.10;101856.61;1745860;81;21119;-75
2021/10/29 00:03:04;;;;;;;56.23;37.28;;;;;;;10.75;70.24;101855.73;1744631;81;20928;-77
2021/10/29 00:05:31;;;;;;;53.58;36.53;;;;;;;10.66;70.43;101858.27;1744588;82;20889;-76
2021/10/29 00:07:58;;;;;;;49.98;34.92;;;;;;;10.55;70.68;101856.08;1744921;82;21007;-77
2021/10/29 00:10:26;;;;;;;48.20;33.63;;;;;;;10.45;70.98;101858.69;1744702;81;20924;-75
2021/10/29 00:12:53;;;;;;;55.83;35.70;;;;;;;10.35;71.22;101862.11;1744887;82;21099;-75
2021/10/29 00:15:21;;;;;;;60.03;36.55;;;;;;;10.27;71.51;101862.85;1744539;81;20905;-74
2021/10/29 00:17:49;;;;;;;49.35;34.65;;;;;;;10.20;71.85;101859.20;1744667;82;21110;-76
2021/10/29 00:20:16;;;;;;;55.25;35.92;;;;;;;10.12;71.79;101860.81;1744667;82;20917;-75
2021/10/29 00:22:43;;;;;;;44.20;31.77;;;;;;;10.05;71.71;101860.20;1744955;82;20878;-76
2021/10/29 00:25:10;;;;;;;47.48;32.73;;;;;;;10.00;71.67;101857.34;1744579;82;22153;-76
2021/10/29 00:27:37;;;;;;;53.13;32.78;;;;;;;9.95;71.81;101856.20;1747263;81;20995;-77
2021/10/29 00:30:05;;;;;;;52.27;34.98;;;;;;;9.89;71.61;101850.75;1757925;81;20885;-75
2021/10/29 00:32:32;;;;;;;52.23;33.13;;;;;;;9.82;71.34;101851.02;1758298;80;21405;-75
2021/10/29 00:34:59;;;;;;;55.30;37.03;;;;;;;9.73;71.32;101853.05;1758006;81;20974;-75
2021/10/29 00:37:26;;;;;;;52.80;36.45;;;;;;;9.66;71.37;101859.89;1758272;80;22169;-76
2021/10/29 00:39:53;;;;;;;53.68;37.10;;;;;;;9.57;71.30;101861.08;1757950;80;20888;-76
2021/10/29 00:42:20;;;;;;;53.92;37.15;;;;;;;9.45;71.33;101861.50;1758389;80;21065;-76
2021/10/29 00:44:47;;;;;;;54.88;39.73;;;;;;;9.36;71.70;101857.47;1758028;81;20975;-74
2021/10/29 00:47:14;;;;;;;51.28;34.50;;;;;;;9.28;71.91;101857.72;1757920;80;21472;-76
2021/10/29 00:49:41;;;;;;;54.53;36.17;;;;;;;9.22;72.33;101854.00;1757907;80;21141;-76
2021/10/29 00:52:08;;;;;;;46.30;33.88;;;;;;;9.20;72.89;101852.34;1757945;81;21082;-75
2021/10/29 00:54:37;;;;;;;49.38;36.68;;;;;;;9.16;73.41;101852.92;1759041;81;20971;-74
2021/10/29 00:57:05;;;;;;;49.40;34.43;;;;;;;9.13;73.63;101847.31;1757905;81;20896;-75
2021/10/29 00:59:31;;;;;;;55.20;34.83;;;;;;;9.11;73.48;101846.55;1758339;81;20948;-75
2021/10/29 01:01:58;;;;;;;47.65;33.80;;;;;;;9.04;73.37;101843.70;1758135;81;21635;-75
2021/10/29 01:04:25;;;;;;;58.23;35.85;;;;;;;9.04;73.44;101843.70;1758156;81;20892;-75
2021/10/29 01:06:52;;;;;;;49.70;33.95;;;;;;;9.02;73.37;101842.91;1757972;81;21374;-76
2021/10/29 01:09:19;;;;;;;52.25;35.35;;;;;;;8.99;73.08;101843.48;1757959;81;20916;-76
2021/10/29 01:11:48;;;;;;;50.08;34.85;;;;;;;8.94;73.10;101851.48;1757872;81;21007;-73
2021/10/29 01:14:15;;;;;;;55.05;35.60;;;;;;;8.90;73.05;101857.26;1758366;81;22006;-74
2021/10/29 01:16:43;;;;;;;49.10;33.58;;;;;;;8.83;72.82;101857.06;1757766;81;20881;-75
2021/10/29 01:19:10;;;;;;;46.10;32.13;;;;;;;8.77;72.66;101857.72;1758156;81;20999;-74
2021/10/29 01:21:38;;;;;;;65.95;38.25;;;;;;;8.68;72.51;101866.71;1757842;81;21423;-75
2021/10/29 01:24:07;;;;;;;58.52;37.58;;;;;;;8.60;72.75;101866.09;1758124;80;20877;-76
2021/10/29 01:26:35;;;;;;;60.38;38.02;;;;;;;8.54;72.73;101875.00;1757947;81;20905;-76
2021/10/29 01:29:02;;;;;;;63.05;38.60;;;;;;;8.48;72.88;101874.73;1757960;81;20912;-77
2021/10/29 01:31:31;;;;;;;59.00;37.73;;;;;;;8.43;72.88;101872.72;1757864;81;20929;-76
2021/10/29 01:33:58;;;;;;;52.55;32.23;;;;;;;8.40;73.12;101874.52;1758272;81;21492;-75
2021/10/29 01:36:24;;;;;;;64.40;37.10;;;;;;;8.35;73.25;101873.36;1758143;81;20892;-76
2021/10/29 01:38:52;;;;;;;55.43;36.75;;;;;;;8.34;73.44;101871.66;1758276;80;21073;-76
2021/10/29 01:41:19;;;;;;;65.08;35.23;;;;;;;8.33;73.35;101880.39;1757809;81;21477;-76
2021/10/29 01:43:48;;;;;;;55.52;36.28;;;;;;;8.30;73.29;101877.87;1757934;81;21003;-76
2021/10/29 01:46:15;;;;;;;64.77;37.65;;;;;;;8.27;73.33;101876.22;1758107;80;20983;-76
2021/10/29 01:48:47;;;;;;;57.62;37.23;;;;;;;8.23;73.44;101882.44;1758798;81;20916;-77
2021/10/29 01:51:14;;;;;;;65.78;41.02;;;;;;;8.17;73.58;101889.59;1758540;81;21075;-76
2021/10/29 01:53:41;;;;;;;66.70;40.00;;;;;;;8.13;73.68;101887.52;1757870;80;20897;-76
2021/10/29 01:56:08;;;;;;;65.85;37.17;;;;;;;8.09;73.49;101887.19;1758094;80;20940;-74
2021/10/29 01:58:35;;;;;;;62.43;37.05;;;;;;;8.05;73.45;101883.83;1757901;81;20871;-76
2021/10/29 02:01:03;;;;;;;60.05;37.10;;;;;;;8.04;73.45;101891.70;1757907;80;20901;-76
2021/10/29 02:03:30;;;;;;;66.97;40.20;;;;;;;8.01;73.40;101887.43;1757903;81;21303;-76
2021/10/29 02:05:57;;;;;;;66.15;41.28;;;;;;;8.02;73.42;101896.97;1758038;81;20991;-76
2021/10/29 02:08:27;;;;;;;74.32;42.98;;;;;;;8.01;73.37;101898.34;1757746;81;21370;-76
2021/10/29 02:10:53;;;;;;;70.45;43.05;;;;;;;8.02;73.33;101893.50;1758183;81;20892;-75
2021/10/29 02:13:22;;;;;;;67.58;40.63;;;;;;;8.01;73.39;101897.87;1757914;81;20849;-75
2021/10/29 02:15:49;;;;;;;67.97;40.92;;;;;;;7.99;73.39;101903.59;1758304;81;22131;-76
2021/10/29 02:18:16;;;;;;;82.78;43.55;;;;;;;8.00;73.80;101905.75;1757918;81;20958;-76
2021/10/29 02:20:44;;;;;;;83.45;42.10;;;;;;;8.04;73.80;101908.69;1757930;81;20853;-76
2021/10/29 02:23:13;;;;;;;71.55;42.03;;;;;;;8.05;73.70;101908.66;1757787;81;20901;-75
2021/10/29 02:25:43;;;;;;;65.70;41.45;;;;;;;8.08;73.86;101917.70;1757861;80;20963;-75
2021/10/29 02:28:09;;;;;;;70.12;41.95;;;;;;;8.13;73.88;101911.48;1754779;81;21505;-75
2021/10/29 02:30:35;;;;;;;70.28;40.90;;;;;;;8.18;73.81;101924.84;1744613;82;20853;-75
2021/10/29 02:33:03;;;;;;;76.05;42.25;;;;;;;8.23;73.84;101931.23;1744587;82;20964;-75
2021/10/29 02:35:30;;;;;;;82.82;46.45;;;;;;;8.29;74.34;101927.99;1744490;82;21461;-74
2021/10/29 02:37:57;;;;;;;73.97;42.20;;;;;;;8.37;74.08;101931.67;1744582;82;20925;-74
2021/10/29 02:40:24;;;;;;;67.72;41.37;;;;;;;8.44;73.84;101933.23;1744666;81;21003;-76
2021/10/29 02:42:51;;;;;;;71.92;40.23;;;;;;;8.47;73.55;101943.61;1745156;82;20909;-76
2021/10/29 02:45:18;;;;;;;68.97;41.08;;;;;;;8.52;73.97;101950.02;1745403;82;20975;-76
2021/10/29 02:47:48;;;;;;;67.62;41.70;;;;;;;8.55;74.28;101947.29;1744494;82;20885;-76
2021/10/29 02:50:16;;;;;;;68.80;42.45;;;;;;;8.61;74.08;101953.65;1744660;82;20936;-78
2021/10/29 02:52:44;;;;;;;60.70;40.15;;;;;;;8.63;73.97;101951.84;1744553;82;21160;-77
2021/10/29 02:55:11;;;;;;;56.98;36.93;;;;;;;8.66;74.12;101954.36;1744451;81;20949;-76
2021/10/29 02:57:38;;;;;;;64.77;40.90;;;;;;;8.71;74.46;101965.98;1744594;82;20920;-77
2021/10/29 03:00:07;;;;;;;60.67;36.28;;;;;;;8.78;74.60;101967.95;1744437;82;21031;-75
2021/10/29 03:02:35;;;;;;;57.30;35.60;;;;;;;8.82;74.60;101965.66;1744967;80;20933;-75
2021/10/29 03:05:03;;;;;;;57.80;38.88;;;;;;;8.89;74.82;101965.86;1744424;81;21632;-76
2021/10/29 03:07:30;;;;;;;71.22;42.23;;;;;;;8.99;74.64;101970.38;1744453;82;20928;-77
2021/10/29 03:09:58;;;;;;;73.78;38.98;;;;;;;9.06;74.65;101974.50;1744444;82;20983;-76
2021/10/29 03:12:25;;;;;;;48.28;32.35;;;;;;;9.14;74.67;101968.58;1744707;81;20969;-77
2021/10/29 03:14:52;;;;;;;58.38;35.10;;;;;;;9.21;75.07;101974.01;1744634;82;20877;-75
2021/10/29 03:17:19;;;;;;;62.80;37.08;;;;;;;9.28;75.14;101966.36;1744973;81;21100;-76
2021/10/29 03:19:46;;;;;;;49.20;35.30;;;;;;;9.36;75.00;101964.81;1744542;82;20960;-77
2021/10/29 03:22:13;;;;;;;59.48;34.83;;;;;;;9.43;75.01;101972.00;1744830;82;21394;-76
2021/10/29 03:24:41;;;;;;;58.17;36.53;;;;;;;9.48;74.91;101973.55;1744568;81;20905;-77
2021/10/29 03:27:08;;;;;;;62.78;36.77;;;;;;;9.53;74.63;101971.62;1745070;81;20964;-76
2021/10/29 03:29:39;;;;;;;48.25;33.23;;;;;;;9.59;74.46;101971.03;1752469;81;21782;-76
2021/10/29 03:32:06;;;;;;;46.40;33.23;;;;;;;9.63;74.27;101975.26;1757896;81;20881;-77
2021/10/29 03:34:33;;;;;;;59.83;37.03;;;;;;;9.66;74.25;101975.98;1757955;80;20912;-77
2021/10/29 03:37:02;;;;;;;59.67;35.92;;;;;;;9.67;74.23;101980.34;1758109;80;21405;-77
2021/10/29 03:39:37;;;;;;;58.73;33.90;;;;;;;9.67;74.16;101977.72;1758423;81;20939;-77
2021/10/29 03:42:06;;;;;;;48.52;31.02;;;;;;;9.67;74.09;101984.70;1757745;81;22537;-78
2021/10/29 03:47:00;;;;;;;47.80;34.78;;;;;;;9.66;74.24;101992.17;1758085;81;20935;-77
2021/10/29 03:49:35;;;;;;;51.58;35.20;;;;;;;9.66;74.19;101994.33;1757860;81;21445;-75
2021/10/29 03:52:03;;;;;;;52.55;35.08;;;;;;;9.66;74.18;101987.78;1757320;80;20932;-77
2021/10/29 03:54:29;;;;;;;48.70;33.58;;;;;;;9.68;74.06;101983.80;1757620;80;21595;-75
2021/10/29 03:57:06;;;;;;;57.00;36.55;;;;;;;9.70;74.09;101982.84;1757694;80;20876;-76
2021/10/29 03:59:22;;;;;;;58.73;35.58;;;;;;;9.75;74.04;101974.36;1756890;81;20924;-75
2021/10/29 04:01:49;;;;;;;60.00;38.90;;;;;;;9.80;73.96;101976.81;1757966;81;20924;-76
2021/10/29 04:04:16;;;;;;;51.83;35.40;;;;;;;9.83;73.73;101975.87;1758132;81;20959;-77
2021/10/29 04:06:43;;;;;;;56.70;38.28;;;;;;;9.83;73.47;101975.42;1758038;81;21553;-74
2021/10/29 04:09:10;;;;;;;34.53;25.48;;;;;;;9.83;73.77;101973.26;1757834;80;20892;-75
2021/10/29 04:11:38;;;;;;;34.35;26.52;;;;;;;9.80;73.92;101982.05;1757882;81;20935;-76
2021/10/29 04:14:13;;;;;;;30.92;24.23;;;;;;;9.75;74.64;101988.77;1757995;80;20896;-76
2021/10/29 04:16:40;;;;;;;50.65;32.00;;;;;;;9.73;75.18;101987.96;1758078;81;26425;-78
2021/10/29 04:19:09;;;;;;;52.88;34.78;;;;;;;9.69;75.71;101978.52;1757977;81;21988;-78
2021/10/29 04:21:37;;;;;;;47.10;33.35;;;;;;;9.69;75.73;101986.38;1757805;81;20920;-76
2021/10/29 04:24:07;;;;;;;49.40;34.25;;;;;;;9.70;75.53;102002.48;1758119;81;21374;-78
2021/10/29 04:26:35;;;;;;;50.03;32.17;;;;;;;9.69;75.64;102007.34;1757837;81;21331;-79
2021/10/29 04:29:12;;;;;;;29.85;23.25;;;;;;;9.71;75.55;102009.42;1757923;81;20896;-77
2021/10/29 04:31:32;;;;;;;30.85;23.30;;;;;;;9.73;75.92;102019.86;1757121;81;21158;-77
2021/10/29 04:33:59;;;;;;;31.55;22.80;;;;;;;9.73;76.46;102022.48;1758417;80;21346;-77
2021/10/29 04:36:26;;;;;;;30.17;24.05;;;;;;;9.72;76.97;102024.71;1757839;80;20936;-76
2021/10/29 04:38:53;;;;;;;29.35;22.87;;;;;;;9.72;77.18;102031.26;1757930;81;21500;-77
2021/10/29 04:41:22;;;;;;;36.65;23.73;;;;;;;9.71;77.53;102039.55;1757957;81;20976;-79
2021/10/29 04:43:52;;;;;;;32.20;24.63;;;;;;;9.69;77.65;102042.70;1757865;81;21211;-79
2021/10/29 04:46:20;;;;;;;32.83;23.65;;;;;;;9.72;77.86;102044.36;1757765;81;20869;-77
2021/10/29 04:48:47;;;;;;;36.88;26.52;;;;;;;9.72;77.99;102046.98;1757910;81;21015;-76
2021/10/29 04:51:13;;;;;;;31.93;25.12;;;;;;;9.73;77.91;102046.05;1757746;80;21433;-78
2021/10/29 04:53:41;;;;;;;32.53;25.17;;;;;;;9.71;77.81;102050.02;1757830;80;20880;-78
2021/10/29 04:56:08;;;;;;;32.03;24.92;;;;;;;9.67;77.91;102057.61;1758164;81;21117;-77
2021/10/29 04:58:34;;;;;;;35.33;23.00;;;;;;;9.66;78.15;102061.12;1757947;81;20881;-76
2021/10/29 05:01:02;;;;;;;28.92;23.18;;;;;;;9.70;78.48;102061.42;1757887;81;20932;-77
2021/10/29 05:03:29;;;;;;;30.52;22.87;;;;;;;9.75;78.44;102067.81;1757883;81;21461;-76
2021/10/29 05:05:56;;;;;;;29.37;23.50;;;;;;;9.80;78.42;102075.52;1758178;80;20980;-77
2021/10/29 05:08:23;;;;;;;33.05;22.48;;;;;;;9.80;78.33;102078.14;1757791;80;21143;-76
2021/10/29 05:10:50;;;;;;;32.00;22.07;;;;;;;9.78;78.39;102077.34;1758153;81;20889;-77
2021/10/29 05:13:17;;;;;;;30.50;23.30;;;;;;;9.79;78.53;102079.06;1757792;81;21449;-77
2021/10/29 05:15:45;;;;;;;32.90;23.60;;;;;;;9.81;78.54;102080.72;1757903;81;20904;-77
2021/10/29 05:18:17;;;;;;;35.63;26.75;;;;;;;9.85;78.48;102078.84;1757920;81;20900;-77
2021/10/29 05:20:44;;;;;;;40.05;26.37;;;;;;;9.88;78.43;102087.92;1758260;81;21129;-78
2021/10/29 05:23:12;;;;;;;37.65;25.40;;;;;;;9.85;78.33;102090.20;1758118;81;21354;-76
2021/10/29 05:25:39;;;;;;;40.45;27.52;;;;;;;9.81;78.38;102095.13;1758595;80;21070;-77
2021/10/29 05:28:07;;;;;;;41.88;28.00;;;;;;;9.79;78.42;102094.78;1758353;81;21027;-76
2021/10/29 05:30:33;;;;;;;42.53;27.98;;;;;;;9.75;78.50;102094.02;1757919;80;21334;-78
2021/10/29 05:33:00;;;;;;;37.85;25.95;;;;;;;9.76;78.65;102095.75;1757857;80;21494;-76
2021/10/29 05:35:27;;;;;;;37.93;25.55;;;;;;;9.80;78.76;102101.26;1757944;81;20952;-78
2021/10/29 05:37:54;;;;;;;40.40;27.73;;;;;;;9.84;78.71;102102.88;1757804;81;20876;-77
2021/10/29 05:40:21;;;;;;;38.23;25.23;;;;;;;9.85;78.68;102105.03;1758122;81;20904;-78
2021/10/29 05:42:49;;;;;;;36.90;25.92;;;;;;;9.83;78.66;102099.87;1757933;81;20976;-77
2021/10/29 05:45:16;;;;;;;34.88;25.85;;;;;;;9.81;78.59;102108.70;1758079;81;21785;-78
2021/10/29 05:47:43;;;;;;;33.63;24.50;;;;;;;9.81;78.77;102117.41;1740593;81;20889;-76
2021/10/29 05:50:10;;;;;;;36.10;24.55;;;;;;;9.83;78.60;102115.59;1757824;81;20904;-77
2021/10/29 05:52:41;;;;;;;41.42;23.12;;;;;;;9.85;78.71;102119.02;1757748;81;21509;-76
2021/10/29 05:55:15;;;;;;;38.75;24.70;;;;;;;9.89;78.66;102125.00;1758022;81;20940;-76
2021/10/29 05:57:47;;;;;;;32.05;21.62;;;;;;;9.91;78.61;102124.49;1758176;81;22214;-77
2021/10/29 06:00:18;;;;;;;31.65;22.95;;;;;;;9.88;78.59;102128.54;1758184;81;21429;-77
2021/10/29 06:02:45;;;;;;;30.62;23.62;;;;;;;9.84;78.75;102129.08;1757865;81;20896;-77
2021/10/29 06:05:12;;;;;;;31.55;22.70;;;;;;;9.84;78.74;102131.70;1757873;81;20967;-78
2021/10/29 06:07:41;;;;;;;31.73;21.12;;;;;;;9.83;78.79;102135.24;1757946;81;20983;-78
2021/10/29 06:10:10;;;;;;;31.80;22.55;;;;;;;9.85;78.82;102137.79;1757762;80;21136;-77
2021/10/29 06:12:39;;;;;;;29.70;21.12;;;;;;;9.88;78.81;102143.80;1758236;81;20922;-77
2021/10/29 06:15:08;;;;;;;30.12;21.33;;;;;;;9.85;78.67;102146.53;1757854;80;20980;-78
2021/10/29 06:17:35;;;;;;;31.97;21.75;;;;;;;9.82;78.77;102162.80;1758118;80;20952;-78
2021/10/29 06:20:03;;;;;;;33.67;21.35;;;;;;;9.77;78.92;102167.33;1757916;81;21013;-77
2021/10/29 06:22:35;;;;;;;31.70;20.40;;;;;;;9.70;79.07;102163.59;1758040;81;21770;-76
2021/10/29 06:25:08;;;;;;;26.45;18.02;;;;;;;9.67;79.22;102161.50;1757852;81;21012;-77
2021/10/29 06:29:56;;;;;;;26.12;18.40;;;;;;;9.64;79.42;102173.40;1753439;81;20873;-78
2021/10/29 06:32:24;;;;;;;26.50;17.27;;;;;;;9.69;79.37;102170.17;1744977;82;21373;-84
2021/10/29 06:34:51;;;;;;;27.87;18.23;;;;;;;9.71;79.35;102162.67;1744741;82;21137;-84
2021/10/29 06:37:18;;;;;;;26.50;18.20;;;;;;;9.75;79.32;102159.05;1745291;82;20948;-83
2021/10/29 06:39:48;;;;;;;28.80;17.92;;;;;;;9.78;79.30;102160.71;1743471;82;22207;-83
2021/10/29 06:42:20;;;;;;;22.07;15.60;;;;;;;9.81;79.09;102166.33;1743185;82;21040;-86
2021/10/29 06:45:01;;;;;;;21.87;16.35;;;;;;;9.81;78.87;102166.33;1743867;81;21011;-84
2021/10/29 07:01:01;;;;;;;21.40;14.63;;;;;;;9.80;79.00;102194.27;1745745;80;21087;-85
2021/10/29 07:41:18;;;;;;;20.65;14.05;;;;;;;9.91;78.78;102206.58;1744533;81;21959;-83
2021/10/29 07:43:50;;;;;;;18.82;13.53;;;;;;;9.96;78.48;102206.00;1744601;82;20916;-84
2021/10/29 07:46:16;;;;;;;20.00;15.25;;;;;;;10.02;78.35;102202.31;1744999;81;21331;-85
2021/10/29 07:48:45;;;;;;;18.05;14.23;;;;;;;10.04;77.89;102200.50;1745204;81;20885;-85
2021/10/29 07:51:12;;;;;;;25.17;15.63;;;;;;;10.02;77.60;102206.24;1745144;81;20861;-87
2021/10/29 07:53:40;;;;;;;19.60;13.65;;;;;;;9.98;77.72;102201.15;1745404;82;21601;-87
2021/10/29 07:56:07;;;;;;;18.27;14.75;;;;;;;9.95;77.83;102201.65;1744700;81;21007;-89
2021/10/29 07:58:37;;;;;;;24.20;15.60;;;;;;;9.98;77.85;102206.39;1745265;80;21019;-88
2021/10/29 08:01:05;;;;;;;19.70;13.95;;;;;;;9.98;77.45;102207.70;1745081;82;20996;-86
2021/10/29 08:03:31;;;;;;;18.10;14.00;;;;;;;9.97;77.29;102212.09;1744870;82;20893;-90
2021/10/29 08:05:58;;;;;;;20.35;15.08;;;;;;;9.98;77.15;102210.33;1744593;80;21191;-82
2021/10/29 08:08:25;;;;;;;22.90;14.87;;;;;;;10.00;76.97;102209.36;1744605;81;20933;-82
2021/10/29 08:10:52;;;;;;;20.25;13.78;;;;;;;10.05;76.76;102210.52;1745158;82;20878;-84
2021/10/29 08:13:19;;;;;;;21.87;15.40;;;;;;;10.07;76.60;102206.97;1745026;80;20893;-83
2021/10/29 08:15:52;;;;;;;20.05;15.08;;;;;;;10.11;76.36;102213.80;1745811;81;20858;-80
2021/10/29 08:18:19;;;;;;;20.92;14.85;;;;;;;10.13;76.09;102215.08;1745006;81;21065;-82
2021/10/29 08:20:45;;;;;;;21.17;16.42;;;;;;;10.12;76.00;102216.00;1745151;82;20842;-84
2021/10/29 08:23:13;;;;;;;20.77;16.48;;;;;;;10.15;75.97;102213.27;1744727;82;20975;-84
2021/10/29 08:25:41;;;;;;;18.37;14.95;;;;;;;10.18;75.83;102214.46;1744923;82;20909;-87
2021/10/29 08:28:07;;;;;;;24.45;17.27;;;;;;;10.25;75.75;102221.67;1744698;82;20944;-80
2021/10/29 08:30:34;;;;;;;21.90;15.80;;;;;;;10.33;75.64;102225.80;1748370;81;21067;-81
2021/10/29 08:33:01;;;;;;;23.57;16.37;;;;;;;10.43;75.36;102230.76;1758034;81;20925;-80
2021/10/29 08:35:28;;;;;;;20.30;15.93;;;;;;;10.50;74.98;102227.86;1758045;81;20995;-80
2021/10/29 08:37:56;;;;;;;28.45;16.77;;;;;;;10.53;74.40;102228.20;1757767;80;20892;-81
2021/10/29 08:40:22;;;;;;;22.20;17.82;;;;;;;10.49;74.32;102233.15;1757884;80;20892;-83
2021/10/29 08:42:49;;;;;;;23.67;17.90;;;;;;;10.48;74.38;102232.30;1756157;80;21132;-80
2021/10/29 08:45:16;;;;;;;28.42;16.65;;;;;;;10.53;74.27;102238.70;1757869;81;20896;-79
2021/10/29 08:47:45;;;;;;;23.00;17.57;;;;;;;10.55;73.98;102235.11;1757902;80;21038;-80
2021/10/29 08:50:16;;;;;;;28.47;17.10;;;;;;;10.59;73.64;102234.56;1758137;81;20893;-80
2021/10/29 08:52:45;;;;;;;22.87;17.52;;;;;;;10.61;74.51;102242.39;1757796;81;21437;-81
2021/10/29 08:55:13;;;;;;;28.35;19.42;;;;;;;10.64;74.07;102246.21;1758162;81;21117;-77
2021/10/29 08:57:43;;;;;;;22.05;18.10;;;;;;;10.65;74.10;102249.22;1757752;81;21473;-80
2021/10/29 09:00:24;;;;;;;26.75;17.15;;;;;;;10.70;74.10;102242.08;1757678;81;20924;-80
2021/10/29 09:03:13;;;;;;;21.50;17.07;;;;;;;10.77;74.46;102242.26;1758080;81;21494;-82
2021/10/29 09:05:51;;;;;;;24.05;18.37;;;;;;;10.85;73.69;102250.73;1753708;81;21549;-81
2021/10/29 09:33:00;;;;;;;21.27;16.90;;;;;;;10.90;71.66;102243.55;1758352;80;20900;-81
2021/10/29 09:35:36;;;;;;;24.47;18.52;;;;;;;10.86;71.44;102243.24;1758255;81;21331;-81
2021/10/29 09:38:14;;;;;;;23.92;18.85;;;;;;;10.84;71.67;102239.81;1758967;81;20919;-82
2021/10/29 09:41:00;;;;;;;23.07;17.40;;;;;;;10.91;71.68;102243.08;1754607;81;20897;-84
2021/10/29 09:43:27;;;;;;;23.70;17.42;;;;;;;10.97;71.53;102244.19;1758214;81;21464;-82
2021/10/29 09:46:07;;;;;;;27.20;17.87;;;;;;;11.01;71.17;102247.56;1740999;81;20888;-81
2021/10/29 09:48:50;;;;;;;23.35;19.55;;;;;;;10.99;70.91;102250.23;1757248;81;21537;-83
2021/10/29 09:51:16;;;;;;;;;;;;;;;10.99;71.02;102247.61;1760695;80;21547;-81
2021/10/29 09:58:49;;;;;;;22.42;17.07;;;;;;;11.13;71.31;102257.61;1757978;81;20927;-80
2021/10/29 10:01:16;;;;;;;21.82;18.05;;;;;;;11.19;71.00;102252.14;1757872;81;21140;-80
2021/10/29 10:03:45;;;;;;;22.52;17.42;;;;;;;11.24;70.49;102252.83;1757975;80;20931;-79
2021/10/29 10:06:12;;;;;;;22.93;18.77;;;;;;;11.23;69.79;102247.19;1758609;81;20920;-79
2021/10/29 10:08:40;;;;;;;20.60;17.52;;;;;;;11.19;69.68;102246.44;1758034;80;20964;-81
2021/10/29 10:11:10;;;;;;;26.12;19.17;;;;;;;11.20;69.53;102254.73;1758061;81;21018;-79
2021/10/29 10:13:40;;;;;;;22.90;18.37;;;;;;;11.19;69.44;102248.20;1757817;80;21366;-82
2021/10/29 10:16:08;;;;;;;25.02;17.95;;;;;;;11.17;69.50;102249.56;1758000;81;20952;-79
2021/10/29 10:18:34;;;;;;;20.97;17.05;;;;;;;11.24;69.58;102245.41;1757724;81;20928;-81
2021/10/29 10:21:05;;;;;;;23.10;17.60;;;;;;;11.30;69.39;102248.67;1757916;81;21387;-81
2021/10/29 10:23:34;;;;;;;26.40;18.02;;;;;;;11.35;69.17;102248.03;1757907;81;20927;-82
2021/10/29 10:26:28;;;;;;;23.55;18.75;;;;;;;11.39;68.94;102249.64;1758277;80;21110;-80
2021/10/29 10:29:09;;;;;;;21.40;17.57;;;;;;;11.45;68.56;102243.74;1742210;81;21023;-81
2021/10/29 10:45:43;;;;;;;18.82;15.28;;;;;;;11.60;67.02;102245.80;1816524;79;23218;-83
2021/10/29 10:48:13;;;;;;;19.20;15.83;;;;;;;11.57;67.09;102240.67;1789660;79;20951;-80
2021/10/29 10:50:47;;;;;;;22.48;16.32;;;;;;;11.63;67.09;102245.70;1788747;80;21118;-81
2021/10/29 10:53:31;;;;;;;24.18;15.95;;;;;;;11.67;67.16;102249.05;1757327;80;20920;-82
2021/10/29 10:56:17;;;;;;;17.73;15.00;;;;;;;11.70;66.77;102252.42;1789191;80;21380;-82
2021/10/29 10:58:57;;;;;;;20.60;15.80;;;;;;;11.66;66.40;102249.98;1787774;80;20899;-82
2021/10/29 11:01:40;;;;;;;20.88;17.32;;;;;;;11.57;66.48;102247.23;1783317;80;20891;-82
2021/10/29 11:04:19;;;;;;;21.23;16.45;;;;;;;11.54;66.66;102242.96;1757377;80;21169;-81
2021/10/29 11:07:09;;;;;;;24.98;16.50;;;;;;;11.55;66.71;102253.00;1788101;80;21405;-81
2021/10/29 11:10:00;;;;;;;21.17;15.15;;;;;;;11.51;66.55;102250.09;1788716;79;21350;-82
2021/10/29 11:12:47;;;;;;;22.20;16.82;;;;;;;11.51;66.66;102245.69;1789393;80;20896;-81
2021/10/29 11:15:26;;;;;;;21.77;15.88;;;;;;;11.58;66.63;102247.63;1789836;80;21469;-81
2021/10/29 11:18:01;;;;;;;21.87;15.20;;;;;;;11.65;66.50;102249.56;1789529;80;21369;-80
2021/10/29 11:20:46;;;;;;;19.32;15.15;;;;;;;11.68;66.32;102252.94;1789464;80;20888;-82
2021/10/29 11:23:23;;;;;;;22.82;16.62;;;;;;;11.70;66.27;102247.17;1787377;80;21377;-82
2021/10/29 11:26:04;;;;;;;21.33;15.75;;;;;;;11.70;66.33;102251.58;1789668;80;20947;-81
2021/10/29 11:28:42;;;;;;;22.48;16.82;;;;;;;11.70;66.38;102249.80;1789805;80;21438;-81
2021/10/29 11:31:16;;;;;;;22.58;15.88;;;;;;;11.79;66.17;102250.75;1789788;80;21096;-80
2021/10/29 11:33:49;;;;;;;21.62;16.45;;;;;;;11.88;66.04;102249.57;1789103;80;20979;-83
2021/10/29 11:36:21;;;;;;;19.55;15.20;;;;;;;11.93;65.56;102251.55;1789928;80;20856;-81
2021/10/29 11:38:49;;;;;;;21.87;15.48;;;;;;;11.96;65.50;102248.82;1789248;79;21341;-81
2021/10/29 11:41:20;;;;;;;18.07;14.70;;;;;;;11.97;65.19;102250.52;1789844;80;20895;-82
2021/10/29 11:43:48;;;;;;;22.15;15.38;;;;;;;11.92;64.85;102244.59;1788062;80;21056;-82
2021/10/29 11:46:15;;;;;;;22.22;15.32;;;;;;;11.89;64.96;102250.42;1776453;80;20924;-82
2021/10/29 11:48:56;;;;;;;20.40;15.90;;;;;;;11.88;65.14;102243.46;1776418;80;20939;-83
2021/10/29 11:51:23;;;;;;;18.85;16.02;;;;;;;11.98;65.15;102250.05;1776409;80;20940;-83
2021/10/29 11:53:56;;;;;;;21.65;16.20;;;;;;;12.16;64.86;102255.91;1776464;80;20975;-82
2021/10/29 11:56:28;;;;;;;21.45;15.88;;;;;;;12.33;64.42;102247.78;1776271;80;21143;-82
2021/10/29 12:07:19;;;;;;;19.10;14.75;;;;;;;12.76;62.92;102251.22;1775600;80;21023;-81
2021/10/29 12:10:05;;;;;;;17.73;15.50;;;;;;;12.80;62.83;102259.39;1776282;80;21507;-81
2021/10/29 12:12:36;;;;;;;22.45;15.03;;;;;;;12.82;62.71;102260.18;1775365;80;21465;-80
2021/10/29 12:15:16;;;;;;;16.90;13.98;;;;;;;12.89;62.63;102255.04;1775786;80;21413;-82
2021/10/29 12:17:55;;;;;;;19.05;15.98;;;;;;;13.01;62.58;102257.63;1775434;80;20936;-83
2021/10/29 12:20:28;;;;;;;20.50;14.87;;;;;;;13.10;62.34;102256.36;1775571;80;20916;-79
2021/10/29 12:22:59;;;;;;;19.35;15.23;;;;;;;13.18;61.94;102255.53;1775789;80;21264;-80
2021/10/29 12:25:35;;;;;;;16.65;14.25;;;;;;;13.22;61.57;102267.66;1775277;80;21540;-81
2021/10/29 12:28:04;;;;;;;19.02;15.68;;;;;;;13.22;61.40;102261.91;1775065;80;20849;-77
2021/10/29 12:30:33;;;;;;;14.40;12.90;;;;;;;13.21;61.33;102265.95;1775700;80;20881;-80
2021/10/29 13:01:38;;;;;;;24.70;16.52;;;;;;;12.34;62.81;102268.77;1752755;80;20877;-81
2021/10/29 13:04:21;;;;;;;20.30;17.42;;;;;;;12.28;63.01;102264.22;1775649;80;21091;-82
2021/10/29 13:06:53;;;;;;;19.17;15.35;;;;;;;12.23;63.15;102268.36;1775638;80;21399;-81
2021/10/29 13:09:24;;;;;;;19.02;15.98;;;;;;;12.14;63.28;102259.49;1775469;80;20912;-83
2021/10/29 13:12:03;;;;;;;24.57;15.68;;;;;;;12.11;63.61;102260.94;1776112;80;20955;-88
2021/10/29 13:14:34;;;;;;;22.00;15.23;;;;;;;12.09;63.67;102259.68;1775992;80;21051;-89
2021/10/29 13:17:03;;;;;;;20.37;15.13;;;;;;;12.06;63.66;102260.28;1775900;80;21228;-88
2021/10/29 13:35:50;;;;;;;19.80;15.60;;;;;;;11.70;64.35;102257.68;1775760;80;20924;-83
2021/10/29 13:52:16;;;;;;;23.02;17.57;;;;;;;11.39;65.63;102257.52;1783539;80;21338;-78
2021/10/29 13:54:50;;;;;;;25.17;17.07;;;;;;;11.38;65.69;102257.56;1780818;80;20920;-75
2021/10/29 14:02:36;;;;;;;21.95;16.37;;;;;;;11.26;65.75;102257.56;1783714;80;21042;-76
2021/10/29 14:29:41;;;;;;;32.03;17.57;;;;;;;10.60;67.66;102249.84;1783404;80;21018;-79
2021/10/29 14:32:20;;;;;;;35.90;19.00;;;;;;;10.51;67.52;102251.86;1782482;80;20928;-77
2021/10/29 14:34:56;;;;;;;28.62;16.50;;;;;;;10.44;67.54;102263.47;1781701;80;20921;-78
2021/10/29 14:37:33;;;;;;;30.15;18.15;;;;;;;10.34;67.65;102260.77;1783231;80;20892;-79
2021/10/29 14:42:41;;;;;;;46.45;21.82;;;;;;;10.20;67.94;102265.08;1783866;80;20884;-78
2021/10/29 14:45:30;;;;;;;48.48;23.57;;;;;;;10.14;68.20;102258.29;1779052;80;20920;-79